sensor_id;sensor_type;location;lat;lon;timestamp;P1;durP1;ratioP1;P2;durP2;ratioP2
47882;SDS011;37739;50.350;7.578;2022-08-23T00:01:48;2.20;;;1.77;;
47882;SDS011;37739;50.350;7.578;2022-08-23T00:04:20;2.80;;;2.30;;
47882;SDS011;37739;50.350;7.578;2022-08-23T00:06:54;2.50;;;2.00;;
47882;SDS011;37739;50.350;7.578;2022-08-23T00:09:23;2.30;;;2.10;;
47882;SDS011;37739;50.350;7.578;2022-08-23T00:12:10;2.00;;;1.80;;
47882;SDS011;37739;50.350;7.578;2022-08-23T00:14:46;3.13;;;2.20;;
47882;SDS011;37739;50.350;7.578;2022-08-23T00:17:13;2.30;;;2.10;;
47882;SDS011;37739;50.350;7.578;2022-08-23T00:19:40;2.70;;;1.80;;
47882;SDS011;37739;50.350;7.578;2022-08-23T00:22:05;2.63;;;2.43;;
47882;SDS011;37739;50.350;7.578;2022-08-23T00:24:32;2.90;;;2.40;;
47882;SDS011;37739;50.350;7.578;2022-08-23T00:29:31;2.53;;;2.20;;
47882;SDS011;37739;50.350;7.578;2022-08-23T00:32:20;3.07;;;2.40;;
47882;SDS011;37739;50.350;7.578;2022-08-23T00:34:54;3.23;;;2.07;;
47882;SDS011;37739;50.350;7.578;2022-08-23T00:37:24;2.63;;;2.43;;
47882;SDS011;37739;50.350;7.578;2022-08-23T00:39:53;2.57;;;2.37;;
47882;SDS011;37739;50.350;7.578;2022-08-23T00:45:20;3.37;;;2.23;;
47882;SDS011;37739;50.350;7.578;2022-08-23T00:48:09;3.43;;;2.30;;
47882;SDS011;37739;50.350;7.578;2022-08-23T00:50:46;2.40;;;2.20;;
47882;SDS011;37739;50.350;7.578;2022-08-23T00:53:19;4.63;;;2.20;;
47882;SDS011;37739;50.350;7.578;2022-08-23T00:55:52;4.80;;;2.03;;
47882;SDS011;37739;50.350;7.578;2022-08-23T00:58:21;1.90;;;1.70;;
47882;SDS011;37739;50.350;7.578;2022-08-23T01:00:47;2.87;;;1.90;;
47882;SDS011;37739;50.350;7.578;2022-08-23T01:03:15;5.97;;;2.40;;
47882;SDS011;37739;50.350;7.578;2022-08-23T01:06:02;2.90;;;2.00;;
47882;SDS011;37739;50.350;7.578;2022-08-23T01:08:39;2.60;;;2.17;;
47882;SDS011;37739;50.350;7.578;2022-08-23T01:11:10;2.03;;;1.60;;
47882;SDS011;37739;50.350;7.578;2022-08-23T01:16:20;2.10;;;1.90;;
47882;SDS011;37739;50.350;7.578;2022-08-23T01:18:51;2.40;;;1.97;;
47882;SDS011;37739;50.350;7.578;2022-08-23T01:21:30;3.97;;;2.10;;
47882;SDS011;37739;50.350;7.578;2022-08-23T01:24:05;3.87;;;2.47;;
47882;SDS011;37739;50.350;7.578;2022-08-23T01:26:32;3.57;;;2.80;;
47882;SDS011;37739;50.350;7.578;2022-08-23T01:28:59;2.67;;;2.40;;
47882;SDS011;37739;50.350;7.578;2022-08-23T01:31:26;2.47;;;2.27;;
47882;SDS011;37739;50.350;7.578;2022-08-23T01:33:59;2.30;;;2.10;;
47882;SDS011;37739;50.350;7.578;2022-08-23T01:36:29;2.83;;;2.47;;
47882;SDS011;37739;50.350;7.578;2022-08-23T01:38:55;4.20;;;2.10;;
47882;SDS011;37739;50.350;7.578;2022-08-23T01:41:21;2.67;;;2.20;;
47882;SDS011;37739;50.350;7.578;2022-08-23T01:43:48;3.43;;;2.17;;
47882;SDS011;37739;50.350;7.578;2022-08-23T01:46:16;2.23;;;1.93;;
47882;SDS011;37739;50.350;7.578;2022-08-23T01:48:44;2.20;;;2.00;;
47882;SDS011;37739;50.350;7.578;2022-08-23T01:51:12;2.87;;;2.13;;
47882;SDS011;37739;50.350;7.578;2022-08-23T01:53:41;2.63;;;2.23;;
47882;SDS011;37739;50.350;7.578;2022-08-23T01:56:10;2.47;;;2.13;;
47882;SDS011;37739;50.350;7.578;2022-08-23T01:58:38;2.63;;;2.00;;
47882;SDS011;37739;50.350;7.578;2022-08-23T02:01:04;2.40;;;1.70;;
47882;SDS011;37739;50.350;7.578;2022-08-23T02:03:30;2.30;;;2.00;;
47882;SDS011;37739;50.350;7.578;2022-08-23T02:05:56;2.10;;;1.90;;
47882;SDS011;37739;50.350;7.578;2022-08-23T02:08:25;2.97;;;1.93;;
47882;SDS011;37739;50.350;7.578;2022-08-23T02:11:13;2.53;;;1.93;;
47882;SDS011;37739;50.350;7.578;2022-08-23T02:13:41;2.23;;;2.03;;
47882;SDS011;37739;50.350;7.578;2022-08-23T02:16:08;2.13;;;1.93;;
47882;SDS011;37739;50.350;7.578;2022-08-23T02:18:36;2.50;;;2.30;;
47882;SDS011;37739;50.350;7.578;2022-08-23T02:21:02;2.40;;;2.20;;
47882;SDS011;37739;50.350;7.578;2022-08-23T02:23:30;3.37;;;2.07;;
47882;SDS011;37739;50.350;7.578;2022-08-23T02:25:58;3.93;;;2.13;;
47882;SDS011;37739;50.350;7.578;2022-08-23T02:28:26;3.17;;;1.97;;
47882;SDS011;37739;50.350;7.578;2022-08-23T02:30:52;2.47;;;2.20;;
47882;SDS011;37739;50.350;7.578;2022-08-23T02:33:22;2.07;;;1.87;;
47882;SDS011;37739;50.350;7.578;2022-08-23T02:35:47;2.70;;;2.20;;
47882;SDS011;37739;50.350;7.578;2022-08-23T02:38:17;3.90;;;2.57;;
47882;SDS011;37739;50.350;7.578;2022-08-23T02:40:45;6.40;;;3.00;;
47882;SDS011;37739;50.350;7.578;2022-08-23T02:43:13;3.00;;;1.93;;
47882;SDS011;37739;50.350;7.578;2022-08-23T02:45:39;3.83;;;2.20;;
47882;SDS011;37739;50.350;7.578;2022-08-23T02:48:05;2.10;;;1.90;;
47882;SDS011;37739;50.350;7.578;2022-08-23T02:50:32;2.20;;;2.00;;
47882;SDS011;37739;50.350;7.578;2022-08-23T02:53:00;2.00;;;1.80;;
47882;SDS011;37739;50.350;7.578;2022-08-23T02:55:28;2.40;;;2.20;;
47882;SDS011;37739;50.350;7.578;2022-08-23T02:57:53;2.10;;;1.90;;
47882;SDS011;37739;50.350;7.578;2022-08-23T03:00:19;3.13;;;2.17;;
47882;SDS011;37739;50.350;7.578;2022-08-23T03:02:45;2.87;;;2.43;;
47882;SDS011;37739;50.350;7.578;2022-08-23T03:05:12;3.13;;;2.50;;
47882;SDS011;37739;50.350;7.578;2022-08-23T03:07:38;2.30;;;2.10;;
47882;SDS011;37739;50.350;7.578;2022-08-23T03:10:07;2.70;;;2.30;;
47882;SDS011;37739;50.350;7.578;2022-08-23T03:12:36;3.03;;;2.40;;
47882;SDS011;37739;50.350;7.578;2022-08-23T03:15:02;2.33;;;2.13;;
47882;SDS011;37739;50.350;7.578;2022-08-23T03:17:28;2.70;;;2.37;;
47882;SDS011;37739;50.350;7.578;2022-08-23T03:19:56;3.60;;;2.60;;
47882;SDS011;37739;50.350;7.578;2022-08-23T03:22:21;2.20;;;2.00;;
47882;SDS011;37739;50.350;7.578;2022-08-23T03:24:47;2.80;;;2.40;;
47882;SDS011;37739;50.350;7.578;2022-08-23T03:27:12;4.50;;;2.40;;
47882;SDS011;37739;50.350;7.578;2022-08-23T03:29:38;2.93;;;2.30;;
47882;SDS011;37739;50.350;7.578;2022-08-23T03:32:05;3.77;;;2.23;;
47882;SDS011;37739;50.350;7.578;2022-08-23T03:34:31;2.97;;;2.40;;
47882;SDS011;37739;50.350;7.578;2022-08-23T03:36:59;2.60;;;2.27;;
47882;SDS011;37739;50.350;7.578;2022-08-23T03:39:25;2.37;;;2.17;;
47882;SDS011;37739;50.350;7.578;2022-08-23T03:41:53;2.40;;;2.13;;
47882;SDS011;37739;50.350;7.578;2022-08-23T03:44:18;2.60;;;2.40;;
47882;SDS011;37739;50.350;7.578;2022-08-23T03:46:43;2.60;;;2.40;;
47882;SDS011;37739;50.350;7.578;2022-08-23T03:49:09;2.80;;;2.57;;
47882;SDS011;37739;50.350;7.578;2022-08-23T03:51:35;3.50;;;2.70;;
47882;SDS011;37739;50.350;7.578;2022-08-23T03:54:00;2.90;;;2.37;;
47882;SDS011;37739;50.350;7.578;2022-08-23T03:56:30;3.60;;;2.50;;
47882;SDS011;37739;50.350;7.578;2022-08-23T03:59:04;2.80;;;2.60;;
47882;SDS011;37739;50.350;7.578;2022-08-23T04:01:35;3.40;;;2.60;;
47882;SDS011;37739;50.350;7.578;2022-08-23T04:04:01;2.83;;;2.53;;
47882;SDS011;37739;50.350;7.578;2022-08-23T04:06:27;2.40;;;2.20;;
47882;SDS011;37739;50.350;7.578;2022-08-23T04:08:57;2.93;;;2.10;;
47882;SDS011;37739;50.350;7.578;2022-08-23T04:11:23;2.47;;;2.20;;
47882;SDS011;37739;50.350;7.578;2022-08-23T04:13:49;2.70;;;2.30;;
47882;SDS011;37739;50.350;7.578;2022-08-23T04:16:15;2.60;;;2.30;;
47882;SDS011;37739;50.350;7.578;2022-08-23T04:18:43;2.67;;;2.47;;
47882;SDS011;37739;50.350;7.578;2022-08-23T04:21:12;2.60;;;2.33;;
47882;SDS011;37739;50.350;7.578;2022-08-23T04:23:40;2.50;;;2.17;;
47882;SDS011;37739;50.350;7.578;2022-08-23T04:26:06;3.23;;;2.50;;
47882;SDS011;37739;50.350;7.578;2022-08-23T04:28:36;4.20;;;2.57;;
47882;SDS011;37739;50.350;7.578;2022-08-23T04:31:03;2.70;;;2.13;;
47882;SDS011;37739;50.350;7.578;2022-08-23T04:33:31;3.50;;;2.70;;
47882;SDS011;37739;50.350;7.578;2022-08-23T04:36:02;2.60;;;2.10;;
47882;SDS011;37739;50.350;7.578;2022-08-23T04:38:30;2.90;;;2.23;;
47882;SDS011;37739;50.350;7.578;2022-08-23T04:40:57;2.27;;;2.07;;
47882;SDS011;37739;50.350;7.578;2022-08-23T04:43:41;2.73;;;2.10;;
47882;SDS011;37739;50.350;7.578;2022-08-23T04:46:10;2.90;;;2.60;;
47882;SDS011;37739;50.350;7.578;2022-08-23T04:48:38;2.43;;;2.23;;
47882;SDS011;37739;50.350;7.578;2022-08-23T04:51:07;2.63;;;2.40;;
47882;SDS011;37739;50.350;7.578;2022-08-23T04:53:33;3.73;;;2.57;;
47882;SDS011;37739;50.350;7.578;2022-08-23T04:55:59;2.60;;;2.27;;
47882;SDS011;37739;50.350;7.578;2022-08-23T04:58:26;2.60;;;2.33;;
47882;SDS011;37739;50.350;7.578;2022-08-23T05:00:52;2.70;;;2.17;;
47882;SDS011;37739;50.350;7.578;2022-08-23T05:03:20;3.80;;;2.70;;
47882;SDS011;37739;50.350;7.578;2022-08-23T05:05:45;2.07;;;1.87;;
47882;SDS011;37739;50.350;7.578;2022-08-23T05:08:13;2.27;;;2.07;;
47882;SDS011;37739;50.350;7.578;2022-08-23T05:10:39;2.83;;;2.10;;
47882;SDS011;37739;50.350;7.578;2022-08-23T05:13:06;3.20;;;2.20;;
47882;SDS011;37739;50.350;7.578;2022-08-23T05:15:32;4.13;;;1.93;;
47882;SDS011;37739;50.350;7.578;2022-08-23T05:17:57;4.30;;;2.20;;
47882;SDS011;37739;50.350;7.578;2022-08-23T05:20:25;2.80;;;2.50;;
47882;SDS011;37739;50.350;7.578;2022-08-23T05:22:50;2.20;;;2.00;;
47882;SDS011;37739;50.350;7.578;2022-08-23T05:25:18;2.10;;;1.87;;
47882;SDS011;37739;50.350;7.578;2022-08-23T05:27:46;5.17;;;3.20;;
47882;SDS011;37739;50.350;7.578;2022-08-23T05:30:11;2.70;;;2.30;;
47882;SDS011;37739;50.350;7.578;2022-08-23T05:32:42;2.87;;;2.30;;
47882;SDS011;37739;50.350;7.578;2022-08-23T05:35:07;4.47;;;2.40;;
47882;SDS011;37739;50.350;7.578;2022-08-23T05:37:33;3.67;;;2.57;;
47882;SDS011;37739;50.350;7.578;2022-08-23T05:40:00;2.40;;;2.20;;
47882;SDS011;37739;50.350;7.578;2022-08-23T05:42:25;2.77;;;2.17;;
47882;SDS011;37739;50.350;7.578;2022-08-23T05:44:51;2.70;;;2.10;;
47882;SDS011;37739;50.350;7.578;2022-08-23T05:47:16;4.00;;;2.60;;
47882;SDS011;37739;50.350;7.578;2022-08-23T05:49:44;2.30;;;2.10;;
47882;SDS011;37739;50.350;7.578;2022-08-23T05:52:12;3.13;;;2.30;;
47882;SDS011;37739;50.350;7.578;2022-08-23T05:54:38;3.10;;;2.43;;
47882;SDS011;37739;50.350;7.578;2022-08-23T05:57:06;3.67;;;2.40;;
47882;SDS011;37739;50.350;7.578;2022-08-23T05:59:34;2.93;;;2.63;;
47882;SDS011;37739;50.350;7.578;2022-08-23T06:02:02;4.87;;;2.40;;
47882;SDS011;37739;50.350;7.578;2022-08-23T06:04:28;3.57;;;2.53;;
47882;SDS011;37739;50.350;7.578;2022-08-23T06:06:53;2.40;;;2.20;;
47882;SDS011;37739;50.350;7.578;2022-08-23T06:09:22;7.00;;;2.63;;
47882;SDS011;37739;50.350;7.578;2022-08-23T06:11:47;2.40;;;2.20;;
47882;SDS011;37739;50.350;7.578;2022-08-23T06:14:15;3.57;;;2.30;;
47882;SDS011;37739;50.350;7.578;2022-08-23T06:16:44;2.17;;;1.97;;
47882;SDS011;37739;50.350;7.578;2022-08-23T06:19:13;2.20;;;2.00;;
47882;SDS011;37739;50.350;7.578;2022-08-23T06:21:39;2.47;;;2.00;;
47882;SDS011;37739;50.350;7.578;2022-08-23T06:24:09;3.50;;;2.73;;
47882;SDS011;37739;50.350;7.578;2022-08-23T06:26:39;2.90;;;2.27;;
47882;SDS011;37739;50.350;7.578;2022-08-23T06:29:08;2.53;;;2.33;;
47882;SDS011;37739;50.350;7.578;2022-08-23T06:31:38;2.30;;;2.10;;
47882;SDS011;37739;50.350;7.578;2022-08-23T06:36:48;3.50;;;2.07;;
47882;SDS011;37739;50.350;7.578;2022-08-23T06:39:17;3.43;;;2.20;;
47882;SDS011;37739;50.350;7.578;2022-08-23T06:41:47;2.50;;;2.10;;
47882;SDS011;37739;50.350;7.578;2022-08-23T06:44:13;3.90;;;2.00;;
47882;SDS011;37739;50.350;7.578;2022-08-23T06:46:42;7.23;;;2.47;;
47882;SDS011;37739;50.350;7.578;2022-08-23T06:49:08;2.43;;;2.00;;
47882;SDS011;37739;50.350;7.578;2022-08-23T06:54:12;2.80;;;2.47;;
47882;SDS011;37739;50.350;7.578;2022-08-23T06:56:40;2.70;;;2.30;;
47882;SDS011;37739;50.350;7.578;2022-08-23T06:59:06;4.00;;;2.30;;
47882;SDS011;37739;50.350;7.578;2022-08-23T07:04:09;2.40;;;2.20;;
47882;SDS011;37739;50.350;7.578;2022-08-23T07:06:40;3.20;;;2.20;;
47882;SDS011;37739;50.350;7.578;2022-08-23T07:09:05;3.80;;;2.00;;
47882;SDS011;37739;50.350;7.578;2022-08-23T07:11:33;2.90;;;2.50;;
47882;SDS011;37739;50.350;7.578;2022-08-23T07:14:02;2.77;;;2.07;;
47882;SDS011;37739;50.350;7.578;2022-08-23T07:16:35;1.97;;;1.77;;
47882;SDS011;37739;50.350;7.578;2022-08-23T07:19:12;3.07;;;2.23;;
47882;SDS011;37739;50.350;7.578;2022-08-23T07:21:38;2.63;;;1.83;;
47882;SDS011;37739;50.350;7.578;2022-08-23T07:24:04;2.17;;;1.80;;
47882;SDS011;37739;50.350;7.578;2022-08-23T07:26:33;2.10;;;1.63;;
47882;SDS011;37739;50.350;7.578;2022-08-23T07:29:04;2.80;;;2.00;;
47882;SDS011;37739;50.350;7.578;2022-08-23T07:31:34;2.20;;;2.00;;
47882;SDS011;37739;50.350;7.578;2022-08-23T07:34:04;3.17;;;1.80;;
47882;SDS011;37739;50.350;7.578;2022-08-23T07:36:33;3.20;;;2.27;;
47882;SDS011;37739;50.350;7.578;2022-08-23T07:39:03;2.23;;;2.03;;
47882;SDS011;37739;50.350;7.578;2022-08-23T07:41:35;2.43;;;1.80;;
47882;SDS011;37739;50.350;7.578;2022-08-23T07:44:03;2.63;;;1.70;;
47882;SDS011;37739;50.350;7.578;2022-08-23T07:46:32;2.00;;;1.80;;
47882;SDS011;37739;50.350;7.578;2022-08-23T07:48:59;2.30;;;2.00;;
47882;SDS011;37739;50.350;7.578;2022-08-23T07:51:30;1.90;;;1.80;;
47882;SDS011;37739;50.350;7.578;2022-08-23T07:54:02;2.40;;;2.17;;
47882;SDS011;37739;50.350;7.578;2022-08-23T07:56:31;2.20;;;1.60;;
47882;SDS011;37739;50.350;7.578;2022-08-23T07:59:03;2.33;;;1.97;;
47882;SDS011;37739;50.350;7.578;2022-08-23T08:01:30;2.23;;;1.93;;
47882;SDS011;37739;50.350;7.578;2022-08-23T08:03:56;4.83;;;2.63;;
47882;SDS011;37739;50.350;7.578;2022-08-23T08:06:37;2.07;;;1.90;;
47882;SDS011;37739;50.350;7.578;2022-08-23T08:09:05;3.00;;;2.40;;
47882;SDS011;37739;50.350;7.578;2022-08-23T08:11:32;2.20;;;2.00;;
47882;SDS011;37739;50.350;7.578;2022-08-23T08:13:59;2.40;;;1.80;;
47882;SDS011;37739;50.350;7.578;2022-08-23T08:16:28;3.20;;;2.00;;
47882;SDS011;37739;50.350;7.578;2022-08-23T08:18:58;2.53;;;1.87;;
47882;SDS011;37739;50.350;7.578;2022-08-23T08:21:30;2.17;;;1.80;;
47882;SDS011;37739;50.350;7.578;2022-08-23T08:23:58;1.83;;;1.67;;
47882;SDS011;37739;50.350;7.578;2022-08-23T08:26:26;3.97;;;2.00;;
47882;SDS011;37739;50.350;7.578;2022-08-23T08:28:53;4.00;;;2.17;;
47882;SDS011;37739;50.350;7.578;2022-08-23T08:31:21;3.37;;;2.00;;
47882;SDS011;37739;50.350;7.578;2022-08-23T08:33:48;2.67;;;2.20;;
47882;SDS011;37739;50.350;7.578;2022-08-23T08:36:29;2.90;;;1.83;;
47882;SDS011;37739;50.350;7.578;2022-08-23T08:38:59;2.43;;;1.73;;
47882;SDS011;37739;50.350;7.578;2022-08-23T08:41:47;1.97;;;1.77;;
47882;SDS011;37739;50.350;7.578;2022-08-23T08:47:40;2.00;;;1.80;;
47882;SDS011;37739;50.350;7.578;2022-08-23T08:53:52;3.60;;;1.57;;
47882;SDS011;37739;50.350;7.578;2022-08-23T08:55:56;3.80;;;1.87;;
47882;SDS011;37739;50.350;7.578;2022-08-23T09:01:11;2.30;;;1.73;;
47882;SDS011;37739;50.350;7.578;2022-08-23T09:03:41;2.60;;;2.00;;
47882;SDS011;37739;50.350;7.578;2022-08-23T09:06:20;3.37;;;2.00;;
47882;SDS011;37739;50.350;7.578;2022-08-23T09:17:23;2.93;;;2.20;;
47882;SDS011;37739;50.350;7.578;2022-08-23T09:19:55;2.67;;;1.90;;
47882;SDS011;37739;50.350;7.578;2022-08-23T09:22:27;2.60;;;2.20;;
47882;SDS011;37739;50.350;7.578;2022-08-23T09:24:59;2.73;;;2.10;;
47882;SDS011;37739;50.350;7.578;2022-08-23T09:27:27;2.53;;;2.30;;
47882;SDS011;37739;50.350;7.578;2022-08-23T09:29:57;4.67;;;1.90;;
47882;SDS011;37739;50.350;7.578;2022-08-23T09:32:35;2.20;;;2.00;;
47882;SDS011;37739;50.350;7.578;2022-08-23T09:38:14;2.10;;;1.90;;
47882;SDS011;37739;50.350;7.578;2022-08-23T09:40:45;3.23;;;2.30;;
47882;SDS011;37739;50.350;7.578;2022-08-23T09:43:15;3.50;;;1.83;;
47882;SDS011;37739;50.350;7.578;2022-08-23T09:48:14;2.73;;;2.00;;
47882;SDS011;37739;50.350;7.578;2022-08-23T09:51:07;2.53;;;1.60;;
47882;SDS011;37739;50.350;7.578;2022-08-23T09:53:44;3.60;;;2.00;;
47882;SDS011;37739;50.350;7.578;2022-08-23T09:56:21;4.40;;;2.40;;
47882;SDS011;37739;50.350;7.578;2022-08-23T09:58:52;4.50;;;2.20;;
47882;SDS011;37739;50.350;7.578;2022-08-23T10:01:24;3.23;;;2.20;;
47882;SDS011;37739;50.350;7.578;2022-08-23T10:06:42;4.37;;;1.93;;
47882;SDS011;37739;50.350;7.578;2022-08-23T10:09:20;2.70;;;2.00;;
47882;SDS011;37739;50.350;7.578;2022-08-23T10:11:54;2.90;;;2.40;;
47882;SDS011;37739;50.350;7.578;2022-08-23T10:14:21;3.93;;;2.10;;
47882;SDS011;37739;50.350;7.578;2022-08-23T10:22:13;2.43;;;2.03;;
47882;SDS011;37739;50.350;7.578;2022-08-23T10:30:27;2.40;;;1.90;;
47882;SDS011;37739;50.350;7.578;2022-08-23T10:33:15;2.23;;;1.93;;
47882;SDS011;37739;50.350;7.578;2022-08-23T10:50:05;3.70;;;2.10;;
47882;SDS011;37739;50.350;7.578;2022-08-23T10:52:37;2.73;;;1.80;;
47882;SDS011;37739;50.350;7.578;2022-08-23T10:55:32;3.67;;;2.10;;
47882;SDS011;37739;50.350;7.578;2022-08-23T10:58:24;2.37;;;1.73;;
47882;SDS011;37739;50.350;7.578;2022-08-23T11:00:53;3.43;;;1.80;;
47882;SDS011;37739;50.350;7.578;2022-08-23T11:09:37;3.67;;;1.60;;
47882;SDS011;37739;50.350;7.578;2022-08-23T11:14:10;3.23;;;1.97;;
47882;SDS011;37739;50.350;7.578;2022-08-23T11:16:57;2.73;;;2.00;;
47882;SDS011;37739;50.350;7.578;2022-08-23T11:19:44;4.90;;;1.87;;
47882;SDS011;37739;50.350;7.578;2022-08-23T11:22:17;3.20;;;2.03;;
47882;SDS011;37739;50.350;7.578;2022-08-23T11:27:38;2.03;;;1.83;;
47882;SDS011;37739;50.350;7.578;2022-08-23T11:36:19;2.30;;;1.90;;
47882;SDS011;37739;50.350;7.578;2022-08-23T11:43:45;1.73;;;1.50;;
47882;SDS011;37739;50.350;7.578;2022-08-23T11:54:34;3.67;;;1.47;;
47882;SDS011;37739;50.350;7.578;2022-08-23T12:00:14;2.73;;;1.80;;
47882;SDS011;37739;50.350;7.578;2022-08-23T12:02:56;4.50;;;1.80;;
47882;SDS011;37739;50.350;7.578;2022-08-23T12:16:06;2.67;;;1.97;;
47882;SDS011;37739;50.350;7.578;2022-08-23T12:18:35;3.20;;;1.93;;
47882;SDS011;37739;50.350;7.578;2022-08-23T12:21:04;1.73;;;1.60;;
47882;SDS011;37739;50.350;7.578;2022-08-23T12:23:43;1.53;;;1.33;;
47882;SDS011;37739;50.350;7.578;2022-08-23T12:26:24;1.70;;;1.57;;
47882;SDS011;37739;50.350;7.578;2022-08-23T12:29:15;4.67;;;2.00;;
47882;SDS011;37739;50.350;7.578;2022-08-23T12:31:55;1.93;;;1.63;;
47882;SDS011;37739;50.350;7.578;2022-08-23T12:39:49;2.23;;;1.80;;
47882;SDS011;37739;50.350;7.578;2022-08-23T12:42:23;2.20;;;1.73;;
47882;SDS011;37739;50.350;7.578;2022-08-23T12:45:02;4.73;;;1.80;;
47882;SDS011;37739;50.350;7.578;2022-08-23T12:47:35;2.50;;;1.57;;
47882;SDS011;37739;50.350;7.578;2022-08-23T12:50:06;2.57;;;1.73;;
47882;SDS011;37739;50.350;7.578;2022-08-23T12:52:53;2.10;;;1.70;;
47882;SDS011;37739;50.350;7.578;2022-08-23T12:55:21;4.00;;;2.07;;
47882;SDS011;37739;50.350;7.578;2022-08-23T12:57:52;2.87;;;1.90;;
47882;SDS011;37739;50.350;7.578;2022-08-23T13:00:40;2.80;;;1.73;;
47882;SDS011;37739;50.350;7.578;2022-08-23T13:03:16;1.70;;;1.60;;
47882;SDS011;37739;50.350;7.578;2022-08-23T13:05:54;2.53;;;1.60;;
47882;SDS011;37739;50.350;7.578;2022-08-23T13:11:17;2.17;;;1.37;;
47882;SDS011;37739;50.350;7.578;2022-08-23T13:13:46;1.70;;;1.20;;
47882;SDS011;37739;50.350;7.578;2022-08-23T13:19:17;2.97;;;1.53;;
47882;SDS011;37739;50.350;7.578;2022-08-23T13:24:41;1.63;;;1.40;;
47882;SDS011;37739;50.350;7.578;2022-08-23T13:27:09;1.67;;;1.33;;
47882;SDS011;37739;50.350;7.578;2022-08-23T13:29:49;1.87;;;1.47;;
47882;SDS011;37739;50.350;7.578;2022-08-23T13:32:23;1.77;;;1.67;;
47882;SDS011;37739;50.350;7.578;2022-08-23T13:37:58;2.13;;;1.90;;
47882;SDS011;37739;50.350;7.578;2022-08-23T13:40:39;3.43;;;1.83;;
47882;SDS011;37739;50.350;7.578;2022-08-23T13:43:47;1.93;;;1.50;;
47882;SDS011;37739;50.350;7.578;2022-08-23T13:48:45;2.37;;;1.77;;
47882;SDS011;37739;50.350;7.578;2022-08-23T13:53:46;1.80;;;1.23;;
47882;SDS011;37739;50.350;7.578;2022-08-23T13:56:12;2.90;;;1.60;;
47882;SDS011;37739;50.350;7.578;2022-08-23T13:58:38;2.13;;;1.53;;
47882;SDS011;37739;50.350;7.578;2022-08-23T14:01:09;2.20;;;1.53;;
47882;SDS011;37739;50.350;7.578;2022-08-23T14:03:41;2.30;;;1.57;;
47882;SDS011;37739;50.350;7.578;2022-08-23T14:06:06;3.20;;;1.73;;
47882;SDS011;37739;50.350;7.578;2022-08-23T14:08:31;2.00;;;1.60;;
47882;SDS011;37739;50.350;7.578;2022-08-23T14:10:59;3.23;;;1.93;;
47882;SDS011;37739;50.350;7.578;2022-08-23T14:13:27;3.67;;;1.80;;
47882;SDS011;37739;50.350;7.578;2022-08-23T14:15:54;2.60;;;1.80;;
47882;SDS011;37739;50.350;7.578;2022-08-23T14:18:27;2.10;;;1.80;;
47882;SDS011;37739;50.350;7.578;2022-08-23T14:20:52;2.27;;;1.83;;
47882;SDS011;37739;50.350;7.578;2022-08-23T14:23:18;2.60;;;2.00;;
47882;SDS011;37739;50.350;7.578;2022-08-23T14:25:43;2.93;;;1.80;;
47882;SDS011;37739;50.350;7.578;2022-08-23T14:28:11;2.80;;;1.73;;
47882;SDS011;37739;50.350;7.578;2022-08-23T14:30:37;2.27;;;1.60;;
47882;SDS011;37739;50.350;7.578;2022-08-23T14:33:03;2.27;;;2.07;;
47882;SDS011;37739;50.350;7.578;2022-08-23T14:35:31;3.07;;;1.70;;
47882;SDS011;37739;50.350;7.578;2022-08-23T14:37:58;2.80;;;1.77;;
47882;SDS011;37739;50.350;7.578;2022-08-23T14:40:25;1.63;;;1.43;;
47882;SDS011;37739;50.350;7.578;2022-08-23T14:42:50;1.90;;;1.60;;
47882;SDS011;37739;50.350;7.578;2022-08-23T14:45:17;2.43;;;1.90;;
47882;SDS011;37739;50.350;7.578;2022-08-23T14:47:42;2.83;;;1.53;;
47882;SDS011;37739;50.350;7.578;2022-08-23T14:50:08;2.50;;;1.73;;
47882;SDS011;37739;50.350;7.578;2022-08-23T14:52:36;2.23;;;1.70;;
47882;SDS011;37739;50.350;7.578;2022-08-23T14:55:04;1.80;;;1.70;;
47882;SDS011;37739;50.350;7.578;2022-08-23T14:57:30;1.80;;;1.30;;
47882;SDS011;37739;50.350;7.578;2022-08-23T14:59:55;2.00;;;1.50;;
47882;SDS011;37739;50.350;7.578;2022-08-23T15:02:21;1.97;;;1.50;;
47882;SDS011;37739;50.350;7.578;2022-08-23T15:04:50;1.43;;;1.27;;
47882;SDS011;37739;50.350;7.578;2022-08-23T15:07:16;2.50;;;1.70;;
47882;SDS011;37739;50.350;7.578;2022-08-23T15:09:46;3.27;;;1.80;;
47882;SDS011;37739;50.350;7.578;2022-08-23T15:12:13;4.10;;;1.93;;
47882;SDS011;37739;50.350;7.578;2022-08-23T15:14:38;1.70;;;1.60;;
47882;SDS011;37739;50.350;7.578;2022-08-23T15:17:03;2.00;;;1.60;;
47882;SDS011;37739;50.350;7.578;2022-08-23T15:19:29;1.93;;;1.63;;
47882;SDS011;37739;50.350;7.578;2022-08-23T15:21:54;2.60;;;1.53;;
47882;SDS011;37739;50.350;7.578;2022-08-23T15:24:22;2.57;;;1.80;;
47882;SDS011;37739;50.350;7.578;2022-08-23T15:26:47;1.67;;;1.57;;
47882;SDS011;37739;50.350;7.578;2022-08-23T15:29:16;1.83;;;1.70;;
47882;SDS011;37739;50.350;7.578;2022-08-23T15:31:43;1.60;;;1.40;;
47882;SDS011;37739;50.350;7.578;2022-08-23T15:34:09;3.97;;;1.70;;
47882;SDS011;37739;50.350;7.578;2022-08-23T15:36:39;1.73;;;1.40;;
47882;SDS011;37739;50.350;7.578;2022-08-23T15:39:05;2.17;;;1.73;;
47882;SDS011;37739;50.350;7.578;2022-08-23T15:41:33;1.70;;;1.20;;
47882;SDS011;37739;50.350;7.578;2022-08-23T15:43:58;1.80;;;1.60;;
47882;SDS011;37739;50.350;7.578;2022-08-23T15:46:24;1.70;;;1.33;;
47882;SDS011;37739;50.350;7.578;2022-08-23T15:48:57;3.67;;;1.47;;
47882;SDS011;37739;50.350;7.578;2022-08-23T15:51:26;4.00;;;1.50;;
47882;SDS011;37739;50.350;7.578;2022-08-23T15:53:52;2.53;;;1.57;;
47882;SDS011;37739;50.350;7.578;2022-08-23T15:56:21;1.70;;;1.60;;
47882;SDS011;37739;50.350;7.578;2022-08-23T15:58:52;1.53;;;1.40;;
47882;SDS011;37739;50.350;7.578;2022-08-23T16:01:18;3.70;;;1.53;;
47882;SDS011;37739;50.350;7.578;2022-08-23T16:03:45;2.53;;;1.97;;
47882;SDS011;37739;50.350;7.578;2022-08-23T16:06:11;1.80;;;1.40;;
47882;SDS011;37739;50.350;7.578;2022-08-23T16:08:40;2.10;;;1.70;;
47882;SDS011;37739;50.350;7.578;2022-08-23T16:11:11;1.90;;;1.80;;
47882;SDS011;37739;50.350;7.578;2022-08-23T16:13:43;2.10;;;1.50;;
47882;SDS011;37739;50.350;7.578;2022-08-23T16:18:49;1.93;;;1.30;;
47882;SDS011;37739;50.350;7.578;2022-08-23T16:21:15;1.60;;;1.50;;
47882;SDS011;37739;50.350;7.578;2022-08-23T16:23:41;1.87;;;1.30;;
47882;SDS011;37739;50.350;7.578;2022-08-23T16:26:13;1.87;;;1.63;;
47882;SDS011;37739;50.350;7.578;2022-08-23T16:28:46;3.77;;;1.37;;
47882;SDS011;37739;50.350;7.578;2022-08-23T16:31:16;2.30;;;1.50;;
47882;SDS011;37739;50.350;7.578;2022-08-23T16:33:42;2.00;;;1.37;;
47882;SDS011;37739;50.350;7.578;2022-08-23T16:36:08;1.97;;;1.50;;
47882;SDS011;37739;50.350;7.578;2022-08-23T16:38:34;1.87;;;1.60;;
47882;SDS011;37739;50.350;7.578;2022-08-23T16:41:03;2.63;;;1.43;;
47882;SDS011;37739;50.350;7.578;2022-08-23T16:43:31;2.07;;;1.50;;
47882;SDS011;37739;50.350;7.578;2022-08-23T16:45:56;1.93;;;1.20;;
47882;SDS011;37739;50.350;7.578;2022-08-23T16:48:22;2.40;;;1.40;;
47882;SDS011;37739;50.350;7.578;2022-08-23T16:50:47;2.10;;;1.33;;
47882;SDS011;37739;50.350;7.578;2022-08-23T16:53:13;2.17;;;1.30;;
47882;SDS011;37739;50.350;7.578;2022-08-23T16:55:39;2.23;;;1.70;;
47882;SDS011;37739;50.350;7.578;2022-08-23T16:58:08;1.67;;;0.90;;
47882;SDS011;37739;50.350;7.578;2022-08-23T17:00:34;2.30;;;1.33;;
47882;SDS011;37739;50.350;7.578;2022-08-23T17:03:00;1.77;;;1.30;;
47882;SDS011;37739;50.350;7.578;2022-08-23T17:05:25;1.30;;;1.20;;
47882;SDS011;37739;50.350;7.578;2022-08-23T17:07:51;1.70;;;0.97;;
47882;SDS011;37739;50.350;7.578;2022-08-23T17:10:18;3.60;;;1.30;;
47882;SDS011;37739;50.350;7.578;2022-08-23T17:12:46;1.50;;;1.20;;
47882;SDS011;37739;50.350;7.578;2022-08-23T17:15:15;1.50;;;1.27;;
47882;SDS011;37739;50.350;7.578;2022-08-23T17:17:46;2.00;;;1.20;;
47882;SDS011;37739;50.350;7.578;2022-08-23T17:20:13;1.23;;;1.13;;